sensor_id;sensor_type;location;lat;lon;timestamp;pressure;altitude;pressure_sealevel;temperature;humidity
49759;BME280;70329;45.524;10.194;2023-08-24T00:01:53;100180.25;;;29.61;57.49
49759;BME280;70329;45.524;10.194;2023-08-24T00:04:18;100183.88;;;29.62;57.75
49759;BME280;70329;45.524;10.194;2023-08-24T00:06:44;100185.06;;;29.57;57.67
49759;BME280;70329;45.524;10.194;2023-08-24T00:09:09;100178.63;;;29.53;57.92
49759;BME280;70329;45.524;10.194;2023-08-24T00:11:34;100181.44;;;29.50;57.92
49759;BME280;70329;45.524;10.194;2023-08-24T00:14:00;100179.03;;;29.55;57.63
49759;BME280;70329;45.524;10.194;2023-08-24T00:16:25;100170.56;;;29.41;58.61
49759;BME280;70329;45.524;10.194;2023-08-24T00:18:51;100174.19;;;29.45;58.48
49759;BME280;70329;45.524;10.194;2023-08-24T00:21:16;100182.66;;;29.45;58.53
49759;BME280;70329;45.524;10.194;2023-08-24T00:23:48;100175.78;;;29.46;58.24
49759;BME280;70329;45.524;10.194;2023-08-24T00:26:14;100175.78;;;29.46;58.46
49759;BME280;70329;45.524;10.194;2023-08-24T00:28:42;100172.16;;;29.38;58.75
49759;BME280;70329;45.524;10.194;2023-08-24T00:31:07;100175.00;;;29.38;58.58
49759;BME280;70329;45.524;10.194;2023-08-24T00:33:33;100180.63;;;29.28;58.81
49759;BME280;70329;45.524;10.194;2023-08-24T00:36:02;100183.03;;;29.29;59.03
49759;BME280;70329;45.524;10.194;2023-08-24T00:38:28;100187.88;;;29.22;59.46
49759;BME280;70329;45.524;10.194;2023-08-24T00:40:53;100186.25;;;29.24;59.19
49759;BME280;70329;45.524;10.194;2023-08-24T00:43:19;100185.81;;;29.12;59.55
49759;BME280;70329;45.524;10.194;2023-08-24T00:45:50;100172.50;;;29.16;59.70
49759;BME280;70329;45.524;10.194;2023-08-24T00:48:17;100177.75;;;29.21;59.41
49759;BME280;70329;45.524;10.194;2023-08-24T00:50:42;100182.63;;;29.24;59.00
49759;BME280;70329;45.524;10.194;2023-08-24T00:53:08;100178.94;;;29.09;59.38
49759;BME280;70329;45.524;10.194;2023-08-24T00:55:33;100182.16;;;28.97;60.09
49759;BME280;70329;45.524;10.194;2023-08-24T00:57:59;100184.16;;;29.04;59.51
49759;BME280;70329;45.524;10.194;2023-08-24T01:00:25;100182.56;;;29.10;59.65
49759;BME280;70329;45.524;10.194;2023-08-24T01:02:50;100189.03;;;29.10;59.44
49759;BME280;70329;45.524;10.194;2023-08-24T01:05:15;100190.22;;;29.09;59.34
49759;BME280;70329;45.524;10.194;2023-08-24T01:07:41;100180.56;;;29.10;59.50
49759;BME280;70329;45.524;10.194;2023-08-24T01:10:08;100183.38;;;29.03;59.68
49759;BME280;70329;45.524;10.194;2023-08-24T01:13:07;100185.41;;;29.06;59.75
49759;BME280;70329;45.524;10.194;2023-08-24T01:15:55;100179.75;;;29.06;59.50
49759;BME280;70329;45.524;10.194;2023-08-24T01:18:22;100188.22;;;29.06;59.58
49759;BME280;70329;45.524;10.194;2023-08-24T01:20:52;100183.34;;;28.96;60.27
49759;BME280;70329;45.524;10.194;2023-08-24T01:25:50;100180.91;;;28.91;59.77
49759;BME280;70329;45.524;10.194;2023-08-24T01:28:17;100185.72;;;28.87;59.81
49759;BME280;70329;45.524;10.194;2023-08-24T01:30:44;100183.72;;;28.84;59.90
49759;BME280;70329;45.524;10.194;2023-08-24T01:33:09;100180.91;;;28.80;60.20
49759;BME280;70329;45.524;10.194;2023-08-24T01:35:37;100185.69;;;28.73;60.26
49759;BME280;70329;45.524;10.194;2023-08-24T01:38:03;100184.50;;;28.77;59.85
49759;BME280;70329;45.524;10.194;2023-08-24T01:40:43;100186.94;;;28.75;60.20
49759;BME280;70329;45.524;10.194;2023-08-24T01:43:13;100186.91;;;28.72;60.08
49759;BME280;70329;45.524;10.194;2023-08-24T01:45:41;100189.31;;;28.70;60.20
49759;BME280;70329;45.524;10.194;2023-08-24T01:48:09;100180.84;;;28.73;60.39
49759;BME280;70329;45.524;10.194;2023-08-24T01:50:35;100178.06;;;28.77;60.26
49759;BME280;70329;45.524;10.194;2023-08-24T01:53:02;100181.28;;;28.79;60.13
49759;BME280;70329;45.524;10.194;2023-08-24T01:55:27;100174.03;;;28.78;59.93
49759;BME280;70329;45.524;10.194;2023-08-24T01:57:54;100177.66;;;28.78;59.93
49759;BME280;70329;45.524;10.194;2023-08-24T02:00:20;100180.88;;;28.77;60.07
49759;BME280;70329;45.524;10.194;2023-08-24T02:02:45;100175.22;;;28.73;60.18
49759;BME280;70329;45.524;10.194;2023-08-24T02:05:11;100169.63;;;28.80;59.93
49759;BME280;70329;45.524;10.194;2023-08-24T02:07:38;100171.97;;;28.68;60.36
49759;BME280;70329;45.524;10.194;2023-08-24T02:10:03;100169.56;;;28.66;60.07
49759;BME280;70329;45.524;10.194;2023-08-24T02:12:29;100165.94;;;28.66;60.33
49759;BME280;70329;45.524;10.194;2023-08-24T02:14:54;100158.63;;;28.54;61.00
49759;BME280;70329;45.524;10.194;2023-08-24T02:17:19;100167.94;;;28.65;60.22
49759;BME280;70329;45.524;10.194;2023-08-24T02:19:45;100157.44;;;28.55;60.62
49759;BME280;70329;45.524;10.194;2023-08-24T02:22:10;100155.81;;;28.58;60.41
49759;BME280;70329;45.524;10.194;2023-08-24T02:24:35;100158.63;;;28.54;60.33
49759;BME280;70329;45.524;10.194;2023-08-24T02:27:01;100159.38;;;28.48;60.42
49759;BME280;70329;45.524;10.194;2023-08-24T02:29:26;100165.47;;;28.57;59.99
49759;BME280;70329;45.524;10.194;2023-08-24T02:31:53;100161.06;;;28.56;60.23
49759;BME280;70329;45.524;10.194;2023-08-24T02:34:18;100168.31;;;28.60;59.84
49759;BME280;70329;45.524;10.194;2023-08-24T02:36:44;100161.84;;;28.56;60.26
49759;BME280;70329;45.524;10.194;2023-08-24T02:39:09;100162.25;;;28.62;59.85
49759;BME280;70329;45.524;10.194;2023-08-24T02:41:35;100149.81;;;28.63;59.72
49759;BME280;70329;45.524;10.194;2023-08-24T02:44:01;100148.19;;;28.58;60.23
49759;BME280;70329;45.524;10.194;2023-08-24T02:46:27;100157.09;;;28.64;59.61
49759;BME280;70329;45.524;10.194;2023-08-24T02:48:52;100157.44;;;28.55;59.72
49759;BME280;70329;45.524;10.194;2023-08-24T02:51:17;100157.00;;;28.57;59.58
49759;BME280;70329;45.524;10.194;2023-08-24T02:53:43;100160.31;;;28.66;58.96
49759;BME280;70329;45.524;10.194;2023-08-24T02:56:08;100164.69;;;28.60;59.41
49759;BME280;70329;45.524;10.194;2023-08-24T02:58:34;100155.81;;;28.54;59.02
49759;BME280;70329;45.524;10.194;2023-08-24T03:01:03;100159.09;;;28.63;58.80
49759;BME280;70329;45.524;10.194;2023-08-24T03:03:30;100158.69;;;28.65;58.56
49759;BME280;70329;45.524;10.194;2023-08-24T03:06:06;100153.00;;;28.58;59.12
49759;BME280;70329;45.524;10.194;2023-08-24T03:08:33;100152.97;;;28.54;59.59
49759;BME280;70329;45.524;10.194;2023-08-24T03:11:00;100150.19;;;28.58;59.40
49759;BME280;70329;45.524;10.194;2023-08-24T03:13:26;100150.94;;;28.48;60.09
49759;BME280;70329;45.524;10.194;2023-08-24T03:15:52;100144.91;;;28.46;59.98
49759;BME280;70329;45.524;10.194;2023-08-24T03:18:17;100149.31;;;28.36;60.53
49759;BME280;70329;45.524;10.194;2023-08-24T03:20:44;100142.44;;;28.37;60.41
49759;BME280;70329;45.524;10.194;2023-08-24T03:23:10;100138.41;;;28.27;60.71
49759;BME280;70329;45.524;10.194;2023-08-24T03:25:36;100151.69;;;28.30;60.42
49759;BME280;70329;45.524;10.194;2023-08-24T03:28:03;100154.53;;;28.38;59.92
49759;BME280;70329;45.524;10.194;2023-08-24T03:30:28;100159.78;;;28.46;59.74
49759;BME280;70329;45.524;10.194;2023-08-24T03:32:54;100158.59;;;28.44;59.45
49759;BME280;70329;45.524;10.194;2023-08-24T03:35:19;100167.06;;;28.47;59.62
49759;BME280;70329;45.524;10.194;2023-08-24T03:37:44;100165.41;;;28.43;59.52
49759;BME280;70329;45.524;10.194;2023-08-24T03:40:11;100159.78;;;28.46;59.73
49759;BME280;70329;45.524;10.194;2023-08-24T03:42:36;100167.41;;;28.35;60.25
49759;BME280;70329;45.524;10.194;2023-08-24T03:45:02;100167.41;;;28.35;60.44
49759;BME280;70329;45.524;10.194;2023-08-24T03:47:27;100156.13;;;28.35;60.11
49759;BME280;70329;45.524;10.194;2023-08-24T03:49:52;100161.81;;;28.46;59.87
49759;BME280;70329;45.524;10.194;2023-08-24T03:52:18;100163.00;;;28.41;60.01
49759;BME280;70329;45.524;10.194;2023-08-24T03:54:43;100157.75;;;28.40;59.83
49759;BME280;70329;45.524;10.194;2023-08-24T03:57:08;100160.16;;;28.38;60.06
49759;BME280;70329;45.524;10.194;2023-08-24T03:59:34;100166.56;;;28.35;60.12
49759;BME280;70329;45.524;10.194;2023-08-24T04:02:00;100161.75;;;28.35;59.97
49759;BME280;70329;45.524;10.194;2023-08-24T04:04:27;100167.41;;;28.35;59.87
49759;BME280;70329;45.524;10.194;2023-08-24T04:06:53;100170.59;;;28.30;60.32
49759;BME280;70329;45.524;10.194;2023-08-24T04:09:18;100168.53;;;28.23;60.04
49759;BME280;70329;45.524;10.194;2023-08-24T04:11:44;100170.13;;;28.21;59.70
49759;BME280;70329;45.524;10.194;2023-08-24T04:14:09;100168.94;;;28.25;59.31
49759;BME280;70329;45.524;10.194;2023-08-24T04:16:34;100168.56;;;28.27;59.57
49759;BME280;70329;45.524;10.194;2023-08-24T04:19:00;100175.38;;;28.26;60.17
49759;BME280;70329;45.524;10.194;2023-08-24T04:21:25;100171.78;;;28.29;60.14
49759;BME280;70329;45.524;10.194;2023-08-24T04:23:50;100171.38;;;28.27;60.29
49759;BME280;70329;45.524;10.194;2023-08-24T04:26:16;100177.81;;;28.31;59.71
49759;BME280;70329;45.524;10.194;2023-08-24T04:28:41;100176.63;;;28.32;59.59
49759;BME280;70329;45.524;10.194;2023-08-24T04:31:08;100177.03;;;28.34;59.55
49759;BME280;70329;45.524;10.194;2023-08-24T04:33:33;100179.03;;;28.30;60.06
49759;BME280;70329;45.524;10.194;2023-08-24T04:35:59;100183.41;;;28.20;60.49
49759;BME280;70329;45.524;10.194;2023-08-24T04:38:24;100190.25;;;28.19;61.00
49759;BME280;70329;45.524;10.194;2023-08-24T04:40:51;100189.75;;;28.07;61.43
49759;BME280;70329;45.524;10.194;2023-08-24T04:43:18;100192.63;;;28.17;60.85
49759;BME280;70329;45.524;10.194;2023-08-24T04:45:48;100190.59;;;28.11;61.38
49759;BME280;70329;45.524;10.194;2023-08-24T04:48:14;100187.78;;;28.14;61.54
49759;BME280;70329;45.524;10.194;2023-08-24T04:50:43;100190.56;;;28.07;61.43
49759;BME280;70329;45.524;10.194;2023-08-24T04:53:08;100190.59;;;28.11;61.44
49759;BME280;70329;45.524;10.194;2023-08-24T04:55:33;100190.19;;;28.12;61.19
49759;BME280;70329;45.524;10.194;2023-08-24T04:57:59;100188.22;;;28.16;61.15
49759;BME280;70329;45.524;10.194;2023-08-24T05:00:24;100202.72;;;28.18;60.74
49759;BME280;70329;45.524;10.194;2023-08-24T05:02:50;100197.06;;;28.15;60.90
49759;BME280;70329;45.524;10.194;2023-08-24T05:05:15;100200.75;;;28.22;60.70
49759;BME280;70329;45.524;10.194;2023-08-24T05:07:40;100212.44;;;28.28;60.31
49759;BME280;70329;45.524;10.194;2023-08-24T05:10:06;100218.50;;;28.37;59.63
49759;BME280;70329;45.524;10.194;2023-08-24T05:12:32;100217.31;;;28.38;59.52
49759;BME280;70329;45.524;10.194;2023-08-24T05:15:04;100218.97;;;28.46;59.50
49759;BME280;70329;45.524;10.194;2023-08-24T05:17:29;100215.75;;;28.51;58.88
49759;BME280;70329;45.524;10.194;2023-08-24T05:19:57;100218.22;;;28.60;58.57
49759;BME280;70329;45.524;10.194;2023-08-24T05:22:22;100212.59;;;28.60;58.56
49759;BME280;70329;45.524;10.194;2023-08-24T05:24:49;100206.22;;;28.70;57.95
49759;BME280;70329;45.524;10.194;2023-08-24T05:27:14;100210.28;;;28.79;57.73
49759;BME280;70329;45.524;10.194;2023-08-24T05:29:41;100213.13;;;28.90;57.19
49759;BME280;70329;45.524;10.194;2023-08-24T05:32:06;100218.38;;;28.95;57.45
49759;BME280;70329;45.524;10.194;2023-08-24T05:34:31;100222.47;;;29.08;57.36
49759;BME280;70329;45.524;10.194;2023-08-24T05:36:57;100219.25;;;29.17;56.64
49759;BME280;70329;45.524;10.194;2023-08-24T05:39:22;100217.63;;;29.12;57.21
49759;BME280;70329;45.524;10.194;2023-08-24T05:41:52;100225.41;;;29.96;54.34
49759;BME280;70329;45.524;10.194;2023-08-24T05:44:18;100221.16;;;31.58;49.56
49759;BME280;70329;45.524;10.194;2023-08-24T05:46:44;100219.38;;;32.94;44.98
49759;BME280;70329;45.524;10.194;2023-08-24T05:49:09;100224.16;;;32.67;45.26
49759;BME280;70329;45.524;10.194;2023-08-24T05:51:36;100227.72;;;31.96;47.00
49759;BME280;70329;45.524;10.194;2023-08-24T05:54:01;100232.56;;;31.48;48.06
49759;BME280;70329;45.524;10.194;2023-08-24T05:56:26;100236.38;;;31.13;49.99
49759;BME280;70329;45.524;10.194;2023-08-24T05:58:52;100238.00;;;31.10;49.83
49759;BME280;70329;45.524;10.194;2023-08-24T06:01:17;100241.66;;;31.11;49.95
49759;BME280;70329;45.524;10.194;2023-08-24T06:03:43;100254.28;;;30.92;50.48
49759;BME280;70329;45.524;10.194;2023-08-24T06:06:08;100255.94;;;30.79;50.86
49759;BME280;70329;45.524;10.194;2023-08-24T06:08:35;100252.25;;;30.86;50.49
49759;BME280;70329;45.524;10.194;2023-08-24T06:11:00;100251.50;;;30.75;50.63
49759;BME280;70329;45.524;10.194;2023-08-24T06:13:26;100253.88;;;30.90;50.07
49759;BME280;70329;45.524;10.194;2023-08-24T06:15:52;100252.00;;;30.31;52.33
49759;BME280;70329;45.524;10.194;2023-08-24T06:18:17;100237.34;;;30.71;51.00
49759;BME280;70329;45.524;10.194;2023-08-24T06:20:42;100235.72;;;30.81;50.42
49759;BME280;70329;45.524;10.194;2023-08-24T06:23:08;100237.34;;;30.78;50.64
49759;BME280;70329;45.524;10.194;2023-08-24T06:25:33;100235.75;;;30.74;51.01
49759;BME280;70329;45.524;10.194;2023-08-24T06:27:59;100238.16;;;30.79;51.14
49759;BME280;70329;45.524;10.194;2023-08-24T06:30:26;100234.09;;;30.83;50.84
49759;BME280;70329;45.524;10.194;2023-08-24T06:32:51;100239.69;;;31.01;50.42
49759;BME280;70329;45.524;10.194;2023-08-24T06:35:17;100235.59;;;31.12;50.21
49759;BME280;70329;45.524;10.194;2023-08-24T06:37:43;100241.94;;;31.31;49.86
49759;BME280;70329;45.524;10.194;2023-08-24T06:40:09;100245.94;;;31.40;49.40
49759;BME280;70329;45.524;10.194;2023-08-24T06:42:35;100246.66;;;31.55;48.83
49759;BME280;70329;45.524;10.194;2023-08-24T06:45:00;100241.41;;;31.57;48.11
49759;BME280;70329;45.524;10.194;2023-08-24T06:47:25;100243.94;;;31.37;48.26
49759;BME280;70329;45.524;10.194;2023-08-24T06:49:51;100241.09;;;31.37;48.59
49759;BME280;70329;45.524;10.194;2023-08-24T06:52:16;100235.84;;;31.36;48.56
49759;BME280;70329;45.524;10.194;2023-08-24T06:54:42;100232.50;;;31.55;48.27
49759;BME280;70329;45.524;10.194;2023-08-24T06:57:07;100232.69;;;32.97;45.34
49759;BME280;70329;45.524;10.194;2023-08-24T06:59:32;100227.38;;;35.12;40.19
49759;BME280;70329;45.524;10.194;2023-08-24T07:01:58;100225.28;;;37.27;36.31
49759;BME280;70329;45.524;10.194;2023-08-24T07:04:25;100228.78;;;38.97;32.95
49759;BME280;70329;45.524;10.194;2023-08-24T07:06:50;100232.34;;;39.32;31.69
49759;BME280;70329;45.524;10.194;2023-08-24T07:09:16;100235.47;;;38.94;32.51
49759;BME280;70329;45.524;10.194;2023-08-24T07:11:43;100235.66;;;36.67;36.10
49759;BME280;70329;45.524;10.194;2023-08-24T07:14:09;100244.06;;;35.09;39.30
49759;BME280;70329;45.524;10.194;2023-08-24T07:16:34;100239.63;;;34.03;42.06
49759;BME280;70329;45.524;10.194;2023-08-24T07:19:00;100238.31;;;33.61;42.84
49759;BME280;70329;45.524;10.194;2023-08-24T07:21:25;100233.28;;;33.15;43.38
49759;BME280;70329;45.524;10.194;2023-08-24T07:23:50;100232.16;;;32.75;44.18
49759;BME280;70329;45.524;10.194;2023-08-24T07:26:16;100232.44;;;32.88;44.13
49759;BME280;70329;45.524;10.194;2023-08-24T07:28:41;100226.34;;;32.86;44.73
49759;BME280;70329;45.524;10.194;2023-08-24T07:31:10;100232.03;;;32.86;44.08
49759;BME280;70329;45.524;10.194;2023-08-24T07:33:37;100225.97;;;32.84;43.89
49759;BME280;70329;45.524;10.194;2023-08-24T07:36:05;100226.03;;;32.80;44.30
49759;BME280;70329;45.524;10.194;2023-08-24T07:38:30;100225.91;;;32.91;44.73
49759;BME280;70329;45.524;10.194;2023-08-24T07:40:57;100230.25;;;32.99;44.04
49759;BME280;70329;45.524;10.194;2023-08-24T07:43:22;100224.56;;;32.99;43.92
49759;BME280;70329;45.524;10.194;2023-08-24T07:45:47;100226.13;;;33.07;43.28
49759;BME280;70329;45.524;10.194;2023-08-24T07:48:13;100222.75;;;33.16;43.15
49759;BME280;70329;45.524;10.194;2023-08-24T07:50:38;100219.72;;;33.30;42.89
49759;BME280;70329;45.524;10.194;2023-08-24T07:53:03;100229.97;;;33.20;43.89
49759;BME280;70329;45.524;10.194;2023-08-24T07:55:30;100220.97;;;33.25;43.05
49759;BME280;70329;45.524;10.194;2023-08-24T07:57:55;100228.06;;;33.40;42.90
49759;BME280;70329;45.524;10.194;2023-08-24T08:00:21;100228.69;;;33.52;43.55
49759;BME280;70329;45.524;10.194;2023-08-24T08:02:49;100233.88;;;33.60;44.10
49759;BME280;70329;45.524;10.194;2023-08-24T08:05:15;100232.31;;;33.79;42.72
49759;BME280;70329;45.524;10.194;2023-08-24T08:07:40;100235.63;;;33.77;41.58
49759;BME280;70329;45.524;10.194;2023-08-24T08:10:06;100237.66;;;33.77;42.58
49759;BME280;70329;45.524;10.194;2023-08-24T08:12:32;100231.47;;;33.82;42.23
49759;BME280;70329;45.524;10.194;2023-08-24T08:14:58;100236.19;;;33.92;42.63
49759;BME280;70329;45.524;10.194;2023-08-24T08:17:23;100234.88;;;33.96;41.86
49759;BME280;70329;45.524;10.194;2023-08-24T08:19:49;100236.91;;;33.96;41.15
49759;BME280;70329;45.524;10.194;2023-08-24T08:22:14;100228.75;;;33.98;40.93
49759;BME280;70329;45.524;10.194;2023-08-24T08:24:39;100226.00;;;33.94;41.82
49759;BME280;70329;45.524;10.194;2023-08-24T08:27:05;100223.75;;;34.06;41.77
49759;BME280;70329;45.524;10.194;2023-08-24T08:29:30;100217.41;;;34.21;41.05
49759;BME280;70329;45.524;10.194;2023-08-24T08:31:56;100220.84;;;34.32;40.91
49759;BME280;70329;45.524;10.194;2023-08-24T08:34:21;100216.97;;;34.42;42.15
49759;BME280;70329;45.524;10.194;2023-08-24T08:36:47;100227.41;;;34.49;41.84
49759;BME280;70329;45.524;10.194;2023-08-24T08:39:12;100223.47;;;34.43;39.57
49759;BME280;70329;45.524;10.194;2023-08-24T08:41:42;100225.50;;;34.42;40.05
49759;BME280;70329;45.524;10.194;2023-08-24T08:44:10;100230.28;;;34.69;40.78
49759;BME280;70329;45.524;10.194;2023-08-24T08:46:38;100228.03;;;34.60;40.40
49759;BME280;70329;45.524;10.194;2023-08-24T08:49:06;100233.56;;;34.47;41.46
49759;BME280;70329;45.524;10.194;2023-08-24T08:51:33;100227.16;;;34.63;42.15
49759;BME280;70329;45.524;10.194;2023-08-24T08:53:59;100230.00;;;34.63;41.41
49759;BME280;70329;45.524;10.194;2023-08-24T08:56:26;100229.78;;;34.74;41.51
49759;BME280;70329;45.524;10.194;2023-08-24T08:58:52;100222.13;;;34.71;41.64
49759;BME280;70329;45.524;10.194;2023-08-24T09:01:18;100226.66;;;34.68;42.10
49759;BME280;70329;45.524;10.194;2023-08-24T09:03:44;100220.66;;;34.82;40.68
49759;BME280;70329;45.524;10.194;2023-08-24T09:06:10;100222.56;;;34.89;39.92
49759;BME280;70329;45.524;10.194;2023-08-24T09:08:36;100222.03;;;34.94;40.16
49759;BME280;70329;45.524;10.194;2023-08-24T09:11:02;100217.78;;;35.02;40.15
49759;BME280;70329;45.524;10.194;2023-08-24T09:13:29;100216.69;;;35.16;39.73
49759;BME280;70329;45.524;10.194;2023-08-24T09:16:03;100214.06;;;35.25;40.53
49759;BME280;70329;45.524;10.194;2023-08-24T09:18:37;100211.84;;;35.32;40.22
49759;BME280;70329;45.524;10.194;2023-08-24T09:21:10;100211.28;;;35.21;41.29
49759;BME280;70329;45.524;10.194;2023-08-24T09:23:43;100216.00;;;34.92;40.46
49759;BME280;70329;45.524;10.194;2023-08-24T09:26:09;100207.56;;;35.24;40.89
49759;BME280;70329;45.524;10.194;2023-08-24T09:28:34;100197.69;;;35.29;40.36
49759;BME280;70329;45.524;10.194;2023-08-24T09:31:01;100202.75;;;35.01;42.20
49759;BME280;70329;45.524;10.194;2023-08-24T09:33:29;100196.09;;;35.28;41.53
49759;BME280;70329;45.524;10.194;2023-08-24T09:35:55;100201.78;;;35.44;41.16
49759;BME280;70329;45.524;10.194;2023-08-24T09:38:26;100200.97;;;35.43;41.84
49759;BME280;70329;45.524;10.194;2023-08-24T09:40:53;100196.09;;;35.28;41.88
49759;BME280;70329;45.524;10.194;2023-08-24T09:43:19;100190.75;;;35.46;40.82
49759;BME280;70329;45.524;10.194;2023-08-24T09:48:17;100194.53;;;35.59;40.55
49759;BME280;70329;45.524;10.194;2023-08-24T09:50:44;100187.34;;;35.35;39.92
49759;BME280;70329;45.524;10.194;2023-08-24T09:53:18;100187.28;;;35.38;40.07
49759;BME280;70329;45.524;10.194;2023-08-24T09:55:49;100191.28;;;35.41;39.73
49759;BME280;70329;45.524;10.194;2023-08-24T09:58:17;100180.69;;;35.41;40.13
49759;BME280;70329;45.524;10.194;2023-08-24T10:00:45;100174.22;;;35.57;40.10
49759;BME280;70329;45.524;10.194;2023-08-24T10:03:14;100183.53;;;35.41;38.92
49759;BME280;70329;45.524;10.194;2023-08-24T10:05:42;100181.19;;;35.56;40.01
49759;BME280;70329;45.524;10.194;2023-08-24T10:08:09;100174.88;;;35.64;39.10
49759;BME280;70329;45.524;10.194;2023-08-24T10:10:36;100177.69;;;35.81;38.61
49759;BME280;70329;45.524;10.194;2023-08-24T10:13:28;100176.19;;;35.92;38.27
49759;BME280;70329;45.524;10.194;2023-08-24T10:15:55;100164.78;;;35.92;37.88
49759;BME280;70329;45.524;10.194;2023-08-24T10:18:22;100165.91;;;36.11;37.58
49759;BME280;70329;45.524;10.194;2023-08-24T10:20:49;100164.69;;;35.96;37.69
49759;BME280;70329;45.524;10.194;2023-08-24T10:23:17;100167.34;;;36.03;36.97
49759;BME280;70329;45.524;10.194;2023-08-24T10:25:46;100166.41;;;36.22;38.46
49759;BME280;70329;45.524;10.194;2023-08-24T10:28:11;100164.41;;;36.06;37.36
49759;BME280;70329;45.524;10.194;2023-08-24T10:30:38;100164.69;;;35.80;37.20
49759;BME280;70329;45.524;10.194;2023-08-24T10:33:05;100162.38;;;36.07;37.27
49759;BME280;70329;45.524;10.194;2023-08-24T10:35:32;100144.06;;;36.20;37.37
49759;BME280;70329;45.524;10.194;2023-08-24T10:37:58;100154.31;;;36.02;36.43
49759;BME280;70329;45.524;10.194;2023-08-24T10:40:35;100151.72;;;35.79;36.88
49759;BME280;70329;45.524;10.194;2023-08-24T10:43:05;100147.50;;;35.51;36.05
49759;BME280;70329;45.524;10.194;2023-08-24T10:46:01;100136.44;;;35.85;35.62
49759;BME280;70329;45.524;10.194;2023-08-24T10:48:56;100138.78;;;35.90;34.36
49759;BME280;70329;45.524;10.194;2023-08-24T10:53:57;100137.06;;;35.93;35.22
49759;BME280;70329;45.524;10.194;2023-08-24T10:56:53;100136.75;;;36.19;36.59
49759;BME280;70329;45.524;10.194;2023-08-24T10:59:22;100135.78;;;36.10;36.60
49759;BME280;70329;45.524;10.194;2023-08-24T11:04:18;100134.44;;;36.43;34.57
49759;BME280;70329;45.524;10.194;2023-08-24T11:07:00;100132.75;;;36.17;35.21
49759;BME280;70329;45.524;10.194;2023-08-24T11:09:45;100123.03;;;36.43;35.91
49759;BME280;70329;45.524;10.194;2023-08-24T11:12:11;100125.72;;;36.63;35.33
49759;BME280;70329;45.524;10.194;2023-08-24T11:14:49;100131.91;;;36.74;36.98
49759;BME280;70329;45.524;10.194;2023-08-24T11:17:20;100119.03;;;36.82;36.21
49759;BME280;70329;45.524;10.194;2023-08-24T11:19:50;100118.75;;;36.51;36.31
49759;BME280;70329;45.524;10.194;2023-08-24T11:22:18;100121.75;;;36.73;36.31
49759;BME280;70329;45.524;10.194;2023-08-24T11:24:45;100117.94;;;36.51;36.49
49759;BME280;70329;45.524;10.194;2023-08-24T11:27:10;100112.47;;;36.56;34.86
49759;BME280;70329;45.524;10.194;2023-08-24T11:29:36;100108.09;;;36.52;34.08
49759;BME280;70329;45.524;10.194;2023-08-24T11:32:02;100109.13;;;36.45;33.70
49759;BME280;70329;45.524;10.194;2023-08-24T11:34:28;100103.91;;;36.69;33.27
49759;BME280;70329;45.524;10.194;2023-08-24T11:36:54;100103.25;;;36.90;33.67
49759;BME280;70329;45.524;10.194;2023-08-24T11:39:21;100106.22;;;36.74;34.08
49759;BME280;70329;45.524;10.194;2023-08-24T11:42:00;100107.19;;;36.96;33.69
49759;BME280;70329;45.524;10.194;2023-08-24T11:44:26;100104.47;;;36.51;34.23
49759;BME280;70329;45.524;10.194;2023-08-24T11:46:52;100099.22;;;36.50;33.51
49759;BME280;70329;45.524;10.194;2023-08-24T11:49:18;100098.44;;;36.74;32.58
49759;BME280;70329;45.524;10.194;2023-08-24T11:51:43;100098.34;;;36.78;33.26
49759;BME280;70329;45.524;10.194;2023-08-24T11:54:08;100097.66;;;36.87;33.82
49759;BME280;70329;45.524;10.194;2023-08-24T11:56:43;100103.75;;;37.01;33.21
49759;BME280;70329;45.524;10.194;2023-08-24T11:59:12;100088.91;;;37.06;32.22
49759;BME280;70329;45.524;10.194;2023-08-24T12:01:39;100092.31;;;37.14;32.08
49759;BME280;70329;45.524;10.194;2023-08-24T12:04:05;100082.38;;;37.18;32.33
49759;BME280;70329;45.524;10.194;2023-08-24T12:06:31;100089.66;;;37.19;32.53
49759;BME280;70329;45.524;10.194;2023-08-24T12:08:58;100080.88;;;37.14;32.52
49759;BME280;70329;45.524;10.194;2023-08-24T12:11:24;100078.56;;;37.34;32.39
49759;BME280;70329;45.524;10.194;2023-08-24T12:13:54;100080.28;;;37.44;32.70
49759;BME280;70329;45.524;10.194;2023-08-24T12:16:22;100073.66;;;37.47;31.96
49759;BME280;70329;45.524;10.194;2023-08-24T12:18:59;100081.00;;;36.60;32.15
49759;BME280;70329;45.524;10.194;2023-08-24T12:21:27;100072.06;;;36.83;32.11
49759;BME280;70329;45.524;10.194;2023-08-24T12:26:23;100068.44;;;37.20;31.70
49759;BME280;70329;45.524;10.194;2023-08-24T12:28:52;100072.09;;;37.21;32.51
49759;BME280;70329;45.524;10.194;2023-08-24T12:31:18;100062.72;;;37.08;31.89
49759;BME280;70329;45.524;10.194;2023-08-24T12:34:15;100056.09;;;37.23;31.57
49759;BME280;70329;45.524;10.194;2023-08-24T12:36:41;100055.03;;;37.43;31.14
49759;BME280;70329;45.524;10.194;2023-08-24T12:39:10;100058.44;;;37.50;30.71
49759;BME280;70329;45.524;10.194;2023-08-24T12:41:38;100049.16;;;37.59;31.39
49759;BME280;70329;45.524;10.194;2023-08-24T12:44:03;100047.69;;;37.07;31.90
49759;BME280;70329;45.524;10.194;2023-08-24T12:46:33;100059.38;;;37.34;31.65
49759;BME280;70329;45.524;10.194;2023-08-24T12:49:00;100056.41;;;37.38;31.92
49759;BME280;70329;45.524;10.194;2023-08-24T12:51:26;100052.22;;;37.64;32.09
49759;BME280;70329;45.524;10.194;2023-08-24T12:53:51;100048.44;;;37.67;31.67